sensor_id;sensor_type;location;lat;lon;timestamp;P1;durP1;ratioP1;P2;durP2;ratioP2
83827;SDS011;74656;48.870;12.562;2024-03-02T00:01:21;39.78;;;20.15;;
83827;SDS011;74656;48.870;12.562;2024-03-02T00:04:24;33.58;;;18.45;;
83827;SDS011;74656;48.870;12.562;2024-03-02T00:07:26;31.80;;;17.10;;
83827;SDS011;74656;48.870;12.562;2024-03-02T00:10:37;33.55;;;16.77;;
83827;SDS011;74656;48.870;12.562;2024-03-02T00:13:41;38.95;;;16.63;;
83827;SDS011;74656;48.870;12.562;2024-03-02T00:16:42;40.60;;;17.75;;
83827;SDS011;74656;48.870;12.562;2024-03-02T00:19:45;35.40;;;15.63;;
83827;SDS011;74656;48.870;12.562;2024-03-02T00:22:46;37.10;;;17.42;;
83827;SDS011;74656;48.870;12.562;2024-03-02T00:25:53;32.92;;;16.70;;
83827;SDS011;74656;48.870;12.562;2024-03-02T00:28:56;32.03;;;17.48;;
83827;SDS011;74656;48.870;12.562;2024-03-02T00:31:57;34.15;;;16.63;;
83827;SDS011;74656;48.870;12.562;2024-03-02T00:34:59;30.00;;;16.20;;
83827;SDS011;74656;48.870;12.562;2024-03-02T00:38:05;31.55;;;15.75;;
83827;SDS011;74656;48.870;12.562;2024-03-02T00:41:07;34.70;;;16.88;;
83827;SDS011;74656;48.870;12.562;2024-03-02T00:44:16;31.48;;;15.93;;
83827;SDS011;74656;48.870;12.562;2024-03-02T00:47:21;35.95;;;17.90;;
83827;SDS011;74656;48.870;12.562;2024-03-02T00:50:23;30.52;;;16.08;;
83827;SDS011;74656;48.870;12.562;2024-03-02T00:53:31;30.08;;;15.25;;
83827;SDS011;74656;48.870;12.562;2024-03-02T00:56:33;32.38;;;18.10;;
83827;SDS011;74656;48.870;12.562;2024-03-02T00:59:35;31.38;;;16.98;;
83827;SDS011;74656;48.870;12.562;2024-03-02T01:02:37;37.17;;;17.58;;
83827;SDS011;74656;48.870;12.562;2024-03-02T01:05:42;37.60;;;17.30;;
83827;SDS011;74656;48.870;12.562;2024-03-02T01:08:45;35.50;;;16.70;;
83827;SDS011;74656;48.870;12.562;2024-03-02T01:11:47;30.95;;;15.82;;
83827;SDS011;74656;48.870;12.562;2024-03-02T01:14:49;36.65;;;17.23;;
83827;SDS011;74656;48.870;12.562;2024-03-02T01:17:51;34.53;;;16.20;;
83827;SDS011;74656;48.870;12.562;2024-03-02T01:20:56;30.27;;;15.85;;
83827;SDS011;74656;48.870;12.562;2024-03-02T01:23:58;36.15;;;17.55;;
83827;SDS011;74656;48.870;12.562;2024-03-02T01:27:01;35.95;;;17.63;;
83827;SDS011;74656;48.870;12.562;2024-03-02T01:30:03;41.35;;;18.55;;
83827;SDS011;74656;48.870;12.562;2024-03-02T01:33:05;38.53;;;17.48;;
83827;SDS011;74656;48.870;12.562;2024-03-02T01:36:07;42.25;;;21.50;;
83827;SDS011;74656;48.870;12.562;2024-03-02T01:39:09;39.17;;;17.85;;
83827;SDS011;74656;48.870;12.562;2024-03-02T01:42:11;38.15;;;18.98;;
83827;SDS011;74656;48.870;12.562;2024-03-02T01:45:12;44.53;;;20.17;;
83827;SDS011;74656;48.870;12.562;2024-03-02T01:48:15;45.30;;;19.17;;
83827;SDS011;74656;48.870;12.562;2024-03-02T01:51:17;40.20;;;19.65;;
83827;SDS011;74656;48.870;12.562;2024-03-02T01:54:20;40.15;;;18.05;;
83827;SDS011;74656;48.870;12.562;2024-03-02T01:57:24;41.17;;;18.75;;
83827;SDS011;74656;48.870;12.562;2024-03-02T02:00:26;41.22;;;17.95;;
83827;SDS011;74656;48.870;12.562;2024-03-02T02:03:29;39.78;;;17.33;;
83827;SDS011;74656;48.870;12.562;2024-03-02T02:06:31;40.30;;;19.27;;
83827;SDS011;74656;48.870;12.562;2024-03-02T02:09:33;36.45;;;18.30;;
83827;SDS011;74656;48.870;12.562;2024-03-02T02:12:36;38.00;;;18.33;;
83827;SDS011;74656;48.870;12.562;2024-03-02T02:15:38;38.08;;;18.65;;
83827;SDS011;74656;48.870;12.562;2024-03-02T02:18:40;38.22;;;15.80;;
83827;SDS011;74656;48.870;12.562;2024-03-02T02:21:42;39.72;;;17.98;;
83827;SDS011;74656;48.870;12.562;2024-03-02T02:24:44;46.17;;;20.85;;
83827;SDS011;74656;48.870;12.562;2024-03-02T02:27:46;48.83;;;19.05;;
83827;SDS011;74656;48.870;12.562;2024-03-02T02:30:48;38.08;;;18.90;;
83827;SDS011;74656;48.870;12.562;2024-03-02T02:33:51;45.65;;;18.38;;
83827;SDS011;74656;48.870;12.562;2024-03-02T02:36:52;43.35;;;19.98;;
83827;SDS011;74656;48.870;12.562;2024-03-02T02:39:55;44.30;;;19.50;;
83827;SDS011;74656;48.870;12.562;2024-03-02T02:42:57;44.00;;;20.65;;
83827;SDS011;74656;48.870;12.562;2024-03-02T02:46:00;45.15;;;19.50;;
83827;SDS011;74656;48.870;12.562;2024-03-02T02:49:02;38.53;;;19.30;;
83827;SDS011;74656;48.870;12.562;2024-03-02T02:52:05;40.80;;;18.38;;
83827;SDS011;74656;48.870;12.562;2024-03-02T02:55:07;38.78;;;18.65;;
83827;SDS011;74656;48.870;12.562;2024-03-02T02:58:14;43.42;;;20.40;;
83827;SDS011;74656;48.870;12.562;2024-03-02T03:01:16;45.70;;;18.50;;
83827;SDS011;74656;48.870;12.562;2024-03-02T03:04:18;53.40;;;21.08;;
83827;SDS011;74656;48.870;12.562;2024-03-02T03:07:21;48.22;;;22.85;;
83827;SDS011;74656;48.870;12.562;2024-03-02T03:10:22;45.03;;;21.50;;
83827;SDS011;74656;48.870;12.562;2024-03-02T03:13:24;47.00;;;20.80;;
83827;SDS011;74656;48.870;12.562;2024-03-02T03:16:26;49.50;;;19.33;;
83827;SDS011;74656;48.870;12.562;2024-03-02T03:19:28;38.65;;;19.17;;
83827;SDS011;74656;48.870;12.562;2024-03-02T03:22:30;45.80;;;20.77;;
83827;SDS011;74656;48.870;12.562;2024-03-02T03:25:33;40.10;;;19.55;;
83827;SDS011;74656;48.870;12.562;2024-03-02T03:28:35;47.35;;;24.08;;
83827;SDS011;74656;48.870;12.562;2024-03-02T03:31:37;45.38;;;20.60;;
83827;SDS011;74656;48.870;12.562;2024-03-02T03:34:39;49.10;;;21.42;;
83827;SDS011;74656;48.870;12.562;2024-03-02T03:37:41;48.03;;;21.15;;
83827;SDS011;74656;48.870;12.562;2024-03-02T03:40:43;48.88;;;21.85;;
83827;SDS011;74656;48.870;12.562;2024-03-02T03:43:45;46.78;;;21.45;;
83827;SDS011;74656;48.870;12.562;2024-03-02T03:46:47;49.60;;;21.13;;
83827;SDS011;74656;48.870;12.562;2024-03-02T03:49:49;50.80;;;21.30;;
83827;SDS011;74656;48.870;12.562;2024-03-02T03:52:51;46.30;;;21.20;;
83827;SDS011;74656;48.870;12.562;2024-03-02T03:55:53;40.55;;;20.25;;
83827;SDS011;74656;48.870;12.562;2024-03-02T03:58:55;45.25;;;19.98;;
83827;SDS011;74656;48.870;12.562;2024-03-02T04:01:58;47.13;;;20.50;;
83827;SDS011;74656;48.870;12.562;2024-03-02T04:05:00;51.83;;;20.90;;
83827;SDS011;74656;48.870;12.562;2024-03-02T04:08:02;46.85;;;22.13;;
83827;SDS011;74656;48.870;12.562;2024-03-02T04:11:04;47.60;;;21.42;;
83827;SDS011;74656;48.870;12.562;2024-03-02T04:14:07;48.88;;;22.48;;
83827;SDS011;74656;48.870;12.562;2024-03-02T04:17:09;56.10;;;21.88;;
83827;SDS011;74656;48.870;12.562;2024-03-02T04:20:11;55.97;;;24.15;;
83827;SDS011;74656;48.870;12.562;2024-03-02T04:23:13;51.13;;;23.13;;
83827;SDS011;74656;48.870;12.562;2024-03-02T04:26:15;47.00;;;22.33;;
83827;SDS011;74656;48.870;12.562;2024-03-02T04:29:17;50.85;;;18.92;;
83827;SDS011;74656;48.870;12.562;2024-03-02T04:32:19;46.20;;;20.33;;
83827;SDS011;74656;48.870;12.562;2024-03-02T04:35:22;47.50;;;20.52;;
83827;SDS011;74656;48.870;12.562;2024-03-02T04:38:23;50.53;;;23.65;;
83827;SDS011;74656;48.870;12.562;2024-03-02T04:41:26;53.55;;;22.08;;
83827;SDS011;74656;48.870;12.562;2024-03-02T04:44:27;49.95;;;23.55;;
83827;SDS011;74656;48.870;12.562;2024-03-02T04:47:29;52.88;;;23.48;;
83827;SDS011;74656;48.870;12.562;2024-03-02T04:50:31;63.42;;;23.83;;
83827;SDS011;74656;48.870;12.562;2024-03-02T04:53:33;53.78;;;23.70;;
83827;SDS011;74656;48.870;12.562;2024-03-02T04:56:35;54.55;;;23.98;;
83827;SDS011;74656;48.870;12.562;2024-03-02T04:59:37;63.72;;;24.60;;
83827;SDS011;74656;48.870;12.562;2024-03-02T05:02:39;60.35;;;24.75;;
83827;SDS011;74656;48.870;12.562;2024-03-02T05:05:41;61.97;;;25.13;;
83827;SDS011;74656;48.870;12.562;2024-03-02T05:08:43;63.83;;;25.90;;
83827;SDS011;74656;48.870;12.562;2024-03-02T05:11:45;56.90;;;25.20;;
83827;SDS011;74656;48.870;12.562;2024-03-02T05:14:47;63.20;;;27.27;;
83827;SDS011;74656;48.870;12.562;2024-03-02T05:17:49;65.35;;;24.23;;
83827;SDS011;74656;48.870;12.562;2024-03-02T05:20:51;62.35;;;24.17;;
83827;SDS011;74656;48.870;12.562;2024-03-02T05:23:53;55.85;;;23.23;;
83827;SDS011;74656;48.870;12.562;2024-03-02T05:26:55;56.92;;;25.50;;
83827;SDS011;74656;48.870;12.562;2024-03-02T05:29:58;53.53;;;23.75;;
83827;SDS011;74656;48.870;12.562;2024-03-02T05:33:01;54.30;;;23.42;;
83827;SDS011;74656;48.870;12.562;2024-03-02T05:36:03;53.75;;;23.83;;
83827;SDS011;74656;48.870;12.562;2024-03-02T05:39:06;59.25;;;22.33;;
83827;SDS011;74656;48.870;12.562;2024-03-02T05:42:08;58.33;;;24.20;;
83827;SDS011;74656;48.870;12.562;2024-03-02T05:45:10;59.85;;;25.45;;
83827;SDS011;74656;48.870;12.562;2024-03-02T05:48:12;58.63;;;26.80;;
83827;SDS011;74656;48.870;12.562;2024-03-02T05:51:14;57.40;;;25.42;;
83827;SDS011;74656;48.870;12.562;2024-03-02T05:54:16;63.40;;;24.40;;
83827;SDS011;74656;48.870;12.562;2024-03-02T05:57:18;55.40;;;23.90;;
83827;SDS011;74656;48.870;12.562;2024-03-02T06:00:21;52.78;;;21.88;;
83827;SDS011;74656;48.870;12.562;2024-03-02T06:03:23;56.88;;;23.73;;
83827;SDS011;74656;48.870;12.562;2024-03-02T06:06:25;51.22;;;22.75;;
83827;SDS011;74656;48.870;12.562;2024-03-02T06:09:27;54.72;;;23.35;;
83827;SDS011;74656;48.870;12.562;2024-03-02T06:12:30;59.42;;;23.08;;
83827;SDS011;74656;48.870;12.562;2024-03-02T06:15:33;53.28;;;22.65;;
83827;SDS011;74656;48.870;12.562;2024-03-02T06:18:35;63.15;;;27.02;;
83827;SDS011;74656;48.870;12.562;2024-03-02T06:21:37;60.90;;;26.67;;
83827;SDS011;74656;48.870;12.562;2024-03-02T06:24:39;57.33;;;26.45;;
83827;SDS011;74656;48.870;12.562;2024-03-02T06:27:41;64.50;;;27.80;;
83827;SDS011;74656;48.870;12.562;2024-03-02T06:30:43;53.13;;;23.10;;
83827;SDS011;74656;48.870;12.562;2024-03-02T06:33:45;54.15;;;20.80;;
83827;SDS011;74656;48.870;12.562;2024-03-02T06:36:47;49.13;;;21.73;;
83827;SDS011;74656;48.870;12.562;2024-03-02T06:39:49;49.55;;;23.02;;
83827;SDS011;74656;48.870;12.562;2024-03-02T06:42:51;46.90;;;20.90;;
83827;SDS011;74656;48.870;12.562;2024-03-02T06:45:53;56.17;;;21.00;;
83827;SDS011;74656;48.870;12.562;2024-03-02T06:48:55;52.70;;;22.08;;
83827;SDS011;74656;48.870;12.562;2024-03-02T06:51:57;55.92;;;24.02;;
83827;SDS011;74656;48.870;12.562;2024-03-02T06:54:59;53.55;;;22.05;;
83827;SDS011;74656;48.870;12.562;2024-03-02T06:58:02;47.78;;;21.98;;
83827;SDS011;74656;48.870;12.562;2024-03-02T07:01:04;59.22;;;27.23;;
83827;SDS011;74656;48.870;12.562;2024-03-02T07:04:06;57.92;;;27.58;;
83827;SDS011;74656;48.870;12.562;2024-03-02T07:07:08;65.60;;;37.35;;
83827;SDS011;74656;48.870;12.562;2024-03-02T07:10:10;58.70;;;26.40;;
83827;SDS011;74656;48.870;12.562;2024-03-02T07:13:12;56.08;;;24.30;;
83827;SDS011;74656;48.870;12.562;2024-03-02T07:16:13;52.33;;;23.38;;
83827;SDS011;74656;48.870;12.562;2024-03-02T07:19:15;45.20;;;22.23;;
83827;SDS011;74656;48.870;12.562;2024-03-02T07:22:17;44.30;;;20.40;;
83827;SDS011;74656;48.870;12.562;2024-03-02T07:25:19;50.53;;;22.42;;
83827;SDS011;74656;48.870;12.562;2024-03-02T07:28:23;52.20;;;22.45;;
83827;SDS011;74656;48.870;12.562;2024-03-02T07:31:25;53.05;;;21.77;;
83827;SDS011;74656;48.870;12.562;2024-03-02T07:34:27;55.40;;;23.05;;
83827;SDS011;74656;48.870;12.562;2024-03-02T07:37:29;48.67;;;23.13;;
83827;SDS011;74656;48.870;12.562;2024-03-02T07:40:31;48.13;;;21.10;;
83827;SDS011;74656;48.870;12.562;2024-03-02T07:43:33;51.17;;;22.27;;
83827;SDS011;74656;48.870;12.562;2024-03-02T07:46:35;41.55;;;20.02;;
83827;SDS011;74656;48.870;12.562;2024-03-02T07:49:37;49.65;;;21.17;;
83827;SDS011;74656;48.870;12.562;2024-03-02T07:52:39;48.35;;;22.20;;
83827;SDS011;74656;48.870;12.562;2024-03-02T07:55:41;41.88;;;19.67;;
83827;SDS011;74656;48.870;12.562;2024-03-02T07:58:43;47.83;;;20.33;;
83827;SDS011;74656;48.870;12.562;2024-03-02T08:01:45;41.28;;;19.70;;
83827;SDS011;74656;48.870;12.562;2024-03-02T08:04:47;40.58;;;20.92;;
83827;SDS011;74656;48.870;12.562;2024-03-02T08:07:49;43.80;;;21.58;;
83827;SDS011;74656;48.870;12.562;2024-03-02T08:10:50;48.10;;;21.20;;
83827;SDS011;74656;48.870;12.562;2024-03-02T08:13:53;46.97;;;20.33;;
83827;SDS011;74656;48.870;12.562;2024-03-02T08:16:54;48.25;;;22.83;;
83827;SDS011;74656;48.870;12.562;2024-03-02T08:19:57;47.08;;;22.98;;
83827;SDS011;74656;48.870;12.562;2024-03-02T08:22:59;44.05;;;21.05;;
83827;SDS011;74656;48.870;12.562;2024-03-02T08:26:01;43.45;;;20.42;;
83827;SDS011;74656;48.870;12.562;2024-03-02T08:29:03;39.83;;;21.17;;
83827;SDS011;74656;48.870;12.562;2024-03-02T08:32:05;41.30;;;20.27;;
83827;SDS011;74656;48.870;12.562;2024-03-02T08:35:07;45.83;;;22.58;;
83827;SDS011;74656;48.870;12.562;2024-03-02T08:38:09;47.95;;;19.70;;
83827;SDS011;74656;48.870;12.562;2024-03-02T08:41:11;44.20;;;20.25;;
83827;SDS011;74656;48.870;12.562;2024-03-02T08:44:12;40.85;;;18.35;;
83827;SDS011;74656;48.870;12.562;2024-03-02T08:47:14;40.53;;;19.65;;
83827;SDS011;74656;48.870;12.562;2024-03-02T08:50:17;37.80;;;19.67;;
83827;SDS011;74656;48.870;12.562;2024-03-02T08:53:18;37.17;;;17.85;;
83827;SDS011;74656;48.870;12.562;2024-03-02T08:56:20;42.45;;;18.98;;
83827;SDS011;74656;48.870;12.562;2024-03-02T08:59:22;38.90;;;18.23;;
83827;SDS011;74656;48.870;12.562;2024-03-02T09:02:24;39.17;;;18.50;;
83827;SDS011;74656;48.870;12.562;2024-03-02T09:05:26;43.60;;;18.80;;
83827;SDS011;74656;48.870;12.562;2024-03-02T09:08:28;37.47;;;16.85;;
83827;SDS011;74656;48.870;12.562;2024-03-02T09:11:29;37.30;;;18.55;;
83827;SDS011;74656;48.870;12.562;2024-03-02T09:14:32;35.25;;;17.23;;
83827;SDS011;74656;48.870;12.562;2024-03-02T09:17:33;34.67;;;17.42;;
83827;SDS011;74656;48.870;12.562;2024-03-02T09:20:35;34.47;;;18.33;;
83827;SDS011;74656;48.870;12.562;2024-03-02T09:23:37;33.88;;;17.88;;
83827;SDS011;74656;48.870;12.562;2024-03-02T09:26:39;31.05;;;16.35;;
83827;SDS011;74656;48.870;12.562;2024-03-02T09:29:40;29.02;;;14.75;;
83827;SDS011;74656;48.870;12.562;2024-03-02T09:32:42;34.95;;;17.33;;
83827;SDS011;74656;48.870;12.562;2024-03-02T09:35:46;32.40;;;16.65;;
83827;SDS011;74656;48.870;12.562;2024-03-02T09:38:48;31.45;;;15.63;;
83827;SDS011;74656;48.870;12.562;2024-03-02T09:41:49;29.08;;;15.02;;
83827;SDS011;74656;48.870;12.562;2024-03-02T09:44:52;29.20;;;14.23;;
83827;SDS011;74656;48.870;12.562;2024-03-02T09:47:54;26.73;;;13.15;;
83827;SDS011;74656;48.870;12.562;2024-03-02T09:50:56;24.15;;;11.85;;
83827;SDS011;74656;48.870;12.562;2024-03-02T09:53:58;27.27;;;14.60;;
83827;SDS011;74656;48.870;12.562;2024-03-02T09:57:18;25.77;;;13.38;;
83827;SDS011;74656;48.870;12.562;2024-03-02T10:00:20;20.85;;;11.50;;
83827;SDS011;74656;48.870;12.562;2024-03-02T10:03:25;28.13;;;14.35;;
83827;SDS011;74656;48.870;12.562;2024-03-02T10:06:29;24.08;;;12.25;;
83827;SDS011;74656;48.870;12.562;2024-03-02T10:09:30;24.60;;;13.23;;
83827;SDS011;74656;48.870;12.562;2024-03-02T10:12:32;26.35;;;12.60;;
83827;SDS011;74656;48.870;12.562;2024-03-02T10:15:35;22.05;;;11.07;;
83827;SDS011;74656;48.870;12.562;2024-03-02T10:18:37;22.45;;;11.73;;
83827;SDS011;74656;48.870;12.562;2024-03-02T10:21:39;25.35;;;12.73;;
83827;SDS011;74656;48.870;12.562;2024-03-02T10:24:42;28.83;;;14.75;;
83827;SDS011;74656;48.870;12.562;2024-03-02T10:27:45;24.60;;;13.60;;
83827;SDS011;74656;48.870;12.562;2024-03-02T10:30:51;21.88;;;12.02;;
83827;SDS011;74656;48.870;12.562;2024-03-02T10:33:54;23.67;;;11.93;;
83827;SDS011;74656;48.870;12.562;2024-03-02T10:36:56;25.80;;;12.38;;
83827;SDS011;74656;48.870;12.562;2024-03-02T10:40:04;25.52;;;14.18;;
83827;SDS011;74656;48.870;12.562;2024-03-02T10:43:06;23.08;;;13.00;;
83827;SDS011;74656;48.870;12.562;2024-03-02T10:46:09;22.98;;;12.10;;
83827;SDS011;74656;48.870;12.562;2024-03-02T10:49:12;21.73;;;12.23;;
83827;SDS011;74656;48.870;12.562;2024-03-02T10:52:14;23.35;;;12.05;;
83827;SDS011;74656;48.870;12.562;2024-03-02T10:55:16;29.85;;;14.07;;
83827;SDS011;74656;48.870;12.562;2024-03-02T10:58:18;24.70;;;12.80;;
83827;SDS011;74656;48.870;12.562;2024-03-02T11:01:20;24.52;;;13.32;;
83827;SDS011;74656;48.870;12.562;2024-03-02T11:04:23;22.40;;;12.85;;
83827;SDS011;74656;48.870;12.562;2024-03-02T11:07:26;23.55;;;12.27;;
83827;SDS011;74656;48.870;12.562;2024-03-02T11:10:41;21.30;;;11.70;;
83827;SDS011;74656;48.870;12.562;2024-03-02T11:13:51;22.67;;;11.80;;
83827;SDS011;74656;48.870;12.562;2024-03-02T11:16:56;20.70;;;11.27;;
83827;SDS011;74656;48.870;12.562;2024-03-02T11:19:59;22.13;;;12.30;;
83827;SDS011;74656;48.870;12.562;2024-03-02T11:23:05;24.70;;;12.70;;
83827;SDS011;74656;48.870;12.562;2024-03-02T11:26:20;24.45;;;13.27;;
83827;SDS011;74656;48.870;12.562;2024-03-02T11:32:36;23.23;;;12.82;;
83827;SDS011;74656;48.870;12.562;2024-03-02T11:35:42;24.33;;;13.75;;
83827;SDS011;74656;48.870;12.562;2024-03-02T11:38:45;22.67;;;11.45;;
83827;SDS011;74656;48.870;12.562;2024-03-02T11:41:48;22.15;;;11.43;;
83827;SDS011;74656;48.870;12.562;2024-03-02T11:44:50;21.45;;;11.20;;
83827;SDS011;74656;48.870;12.562;2024-03-02T11:47:56;22.27;;;12.18;;
83827;SDS011;74656;48.870;12.562;2024-03-02T11:50:59;26.40;;;13.77;;
83827;SDS011;74656;48.870;12.562;2024-03-02T11:54:02;26.20;;;13.07;;
83827;SDS011;74656;48.870;12.562;2024-03-02T11:57:08;22.85;;;12.13;;
83827;SDS011;74656;48.870;12.562;2024-03-02T12:00:16;20.83;;;13.68;;
83827;SDS011;74656;48.870;12.562;2024-03-02T12:03:20;24.20;;;13.32;;
83827;SDS011;74656;48.870;12.562;2024-03-02T12:06:23;22.08;;;13.00;;
83827;SDS011;74656;48.870;12.562;2024-03-02T12:09:28;22.73;;;12.32;;
83827;SDS011;74656;48.870;12.562;2024-03-02T12:12:30;21.77;;;12.48;;
83827;SDS011;74656;48.870;12.562;2024-03-02T12:15:33;22.50;;;12.13;;
83827;SDS011;74656;48.870;12.562;2024-03-02T12:18:36;20.95;;;13.45;;
83827;SDS011;74656;48.870;12.562;2024-03-02T12:21:38;24.70;;;13.98;;
83827;SDS011;74656;48.870;12.562;2024-03-02T12:24:40;25.00;;;13.80;;
83827;SDS011;74656;48.870;12.562;2024-03-02T12:27:43;26.23;;;13.40;;
83827;SDS011;74656;48.870;12.562;2024-03-02T12:30:46;26.35;;;14.15;;
83827;SDS011;74656;48.870;12.562;2024-03-02T12:33:48;22.30;;;13.30;;
83827;SDS011;74656;48.870;12.562;2024-03-02T12:36:50;25.60;;;13.85;;
83827;SDS011;74656;48.870;12.562;2024-03-02T12:39:52;35.53;;;19.90;;
83827;SDS011;74656;48.870;12.562;2024-03-02T12:42:54;23.80;;;13.95;;
83827;SDS011;74656;48.870;12.562;2024-03-02T12:45:56;28.70;;;17.83;;
83827;SDS011;74656;48.870;12.562;2024-03-02T12:48:58;26.55;;;13.85;;
83827;SDS011;74656;48.870;12.562;2024-03-02T12:52:08;22.65;;;13.13;;
83827;SDS011;74656;48.870;12.562;2024-03-02T12:55:12;20.52;;;11.68;;
83827;SDS011;74656;48.870;12.562;2024-03-02T12:58:21;22.95;;;12.68;;
83827;SDS011;74656;48.870;12.562;2024-03-02T13:04:27;22.85;;;13.07;;
83827;SDS011;74656;48.870;12.562;2024-03-02T13:10:31;20.33;;;12.75;;
83827;SDS011;74656;48.870;12.562;2024-03-02T13:13:34;20.90;;;12.82;;
83827;SDS011;74656;48.870;12.562;2024-03-02T13:16:38;21.10;;;12.82;;
83827;SDS011;74656;48.870;12.562;2024-03-02T13:19:58;20.15;;;11.68;;
83827;SDS011;74656;48.870;12.562;2024-03-02T13:23:00;18.40;;;11.63;;
83827;SDS011;74656;48.870;12.562;2024-03-02T13:26:02;19.92;;;12.63;;
83827;SDS011;74656;48.870;12.562;2024-03-02T13:29:04;18.70;;;11.65;;
83827;SDS011;74656;48.870;12.562;2024-03-02T13:32:06;18.02;;;12.32;;
83827;SDS011;74656;48.870;12.562;2024-03-02T13:35:08;15.95;;;10.65;;
83827;SDS011;74656;48.870;12.562;2024-03-02T13:38:10;16.73;;;11.18;;
83827;SDS011;74656;48.870;12.562;2024-03-02T13:41:11;17.27;;;11.82;;
83827;SDS011;74656;48.870;12.562;2024-03-02T13:44:13;16.63;;;11.35;;
83827;SDS011;74656;48.870;12.562;2024-03-02T13:47:15;18.52;;;11.38;;
83827;SDS011;74656;48.870;12.562;2024-03-02T13:50:18;16.10;;;11.10;;
83827;SDS011;74656;48.870;12.562;2024-03-02T13:53:20;15.75;;;11.88;;
83827;SDS011;74656;48.870;12.562;2024-03-02T13:56:22;15.88;;;11.43;;
83827;SDS011;74656;48.870;12.562;2024-03-02T13:59:23;17.73;;;11.93;;
83827;SDS011;74656;48.870;12.562;2024-03-02T14:02:26;15.45;;;10.45;;
83827;SDS011;74656;48.870;12.562;2024-03-02T14:05:28;19.05;;;12.30;;
83827;SDS011;74656;48.870;12.562;2024-03-02T14:08:30;15.38;;;10.73;;
83827;SDS011;74656;48.870;12.562;2024-03-02T14:11:33;16.70;;;11.13;;
83827;SDS011;74656;48.870;12.562;2024-03-02T14:14:34;14.60;;;10.32;;
83827;SDS011;74656;48.870;12.562;2024-03-02T14:17:36;15.95;;;10.93;;
83827;SDS011;74656;48.870;12.562;2024-03-02T14:20:38;15.38;;;10.13;;
83827;SDS011;74656;48.870;12.562;2024-03-02T14:23:42;13.88;;;10.52;;
83827;SDS011;74656;48.870;12.562;2024-03-02T14:26:45;14.25;;;9.75;;
83827;SDS011;74656;48.870;12.562;2024-03-02T14:29:47;14.65;;;10.65;;
83827;SDS011;74656;48.870;12.562;2024-03-02T14:32:49;34.13;;;23.48;;
83827;SDS011;74656;48.870;12.562;2024-03-02T14:35:51;12.90;;;9.45;;
83827;SDS011;74656;48.870;12.562;2024-03-02T14:38:53;12.95;;;9.65;;
83827;SDS011;74656;48.870;12.562;2024-03-02T14:41:55;13.57;;;9.15;;
83827;SDS011;74656;48.870;12.562;2024-03-02T14:44:56;11.57;;;9.07;;
83827;SDS011;74656;48.870;12.562;2024-03-02T14:47:58;13.20;;;9.77;;
83827;SDS011;74656;48.870;12.562;2024-03-02T14:51:00;14.30;;;9.57;;
83827;SDS011;74656;48.870;12.562;2024-03-02T14:54:02;12.10;;;8.68;;
83827;SDS011;74656;48.870;12.562;2024-03-02T14:57:05;12.07;;;8.43;;
83827;SDS011;74656;48.870;12.562;2024-03-02T15:00:06;13.18;;;8.95;;
83827;SDS011;74656;48.870;12.562;2024-03-02T15:03:08;11.45;;;9.13;;
83827;SDS011;74656;48.870;12.562;2024-03-02T15:06:10;15.93;;;10.85;;
83827;SDS011;74656;48.870;12.562;2024-03-02T15:09:12;12.23;;;8.55;;
83827;SDS011;74656;48.870;12.562;2024-03-02T15:12:13;12.80;;;7.68;;
83827;SDS011;74656;48.870;12.562;2024-03-02T15:15:15;10.48;;;7.75;;
83827;SDS011;74656;48.870;12.562;2024-03-02T15:18:17;10.70;;;8.10;;
83827;SDS011;74656;48.870;12.562;2024-03-02T15:21:19;13.70;;;8.32;;
83827;SDS011;74656;48.870;12.562;2024-03-02T15:24:23;14.18;;;8.98;;
83827;SDS011;74656;48.870;12.562;2024-03-02T15:27:24;11.40;;;7.65;;
83827;SDS011;74656;48.870;12.562;2024-03-02T15:30:26;12.90;;;8.35;;
83827;SDS011;74656;48.870;12.562;2024-03-02T15:33:29;11.75;;;7.50;;
83827;SDS011;74656;48.870;12.562;2024-03-02T15:36:31;11.00;;;7.93;;
83827;SDS011;74656;48.870;12.562;2024-03-02T15:39:33;11.82;;;7.05;;
83827;SDS011;74656;48.870;12.562;2024-03-02T15:42:35;12.68;;;7.38;;
83827;SDS011;74656;48.870;12.562;2024-03-02T15:45:37;12.05;;;7.93;;
83827;SDS011;74656;48.870;12.562;2024-03-02T15:48:39;9.80;;;7.05;;
83827;SDS011;74656;48.870;12.562;2024-03-02T15:51:41;10.60;;;7.30;;
83827;SDS011;74656;48.870;12.562;2024-03-02T15:54:44;8.63;;;6.68;;
83827;SDS011;74656;48.870;12.562;2024-03-02T15:57:47;11.63;;;7.38;;
83827;SDS011;74656;48.870;12.562;2024-03-02T16:00:48;12.82;;;8.13;;
83827;SDS011;74656;48.870;12.562;2024-03-02T16:03:51;12.23;;;7.75;;
83827;SDS011;74656;48.870;12.562;2024-03-02T16:06:53;12.50;;;7.28;;
83827;SDS011;74656;48.870;12.562;2024-03-02T16:09:55;12.18;;;7.18;;
83827;SDS011;74656;48.870;12.562;2024-03-02T16:12:57;10.93;;;7.35;;
83827;SDS011;74656;48.870;12.562;2024-03-02T16:15:59;28.90;;;17.55;;
83827;SDS011;74656;48.870;12.562;2024-03-02T16:19:01;71.95;;;46.53;;
83827;SDS011;74656;48.870;12.562;2024-03-02T16:22:08;21.00;;;12.75;;
83827;SDS011;74656;48.870;12.562;2024-03-02T16:25:11;11.80;;;8.10;;
83827;SDS011;74656;48.870;12.562;2024-03-02T16:28:12;12.90;;;8.48;;
83827;SDS011;74656;48.870;12.562;2024-03-02T16:31:14;13.02;;;8.00;;
83827;SDS011;74656;48.870;12.562;2024-03-02T16:34:16;14.68;;;8.30;;
83827;SDS011;74656;48.870;12.562;2024-03-02T16:37:18;13.02;;;7.90;;
83827;SDS011;74656;48.870;12.562;2024-03-02T16:40:20;73.93;;;38.58;;
83827;SDS011;74656;48.870;12.562;2024-03-02T16:43:22;25.40;;;13.45;;
83827;SDS011;74656;48.870;12.562;2024-03-02T16:46:24;16.88;;;9.52;;
83827;SDS011;74656;48.870;12.562;2024-03-02T16:49:26;13.35;;;9.23;;
83827;SDS011;74656;48.870;12.562;2024-03-02T16:52:27;16.77;;;9.95;;
83827;SDS011;74656;48.870;12.562;2024-03-02T16:55:29;16.13;;;10.48;;
83827;SDS011;74656;48.870;12.562;2024-03-02T16:58:31;14.30;;;10.02;;
83827;SDS011;74656;48.870;12.562;2024-03-02T17:01:33;72.70;;;40.40;;
83827;SDS011;74656;48.870;12.562;2024-03-02T17:04:36;25.92;;;14.77;;
83827;SDS011;74656;48.870;12.562;2024-03-02T17:07:38;18.52;;;10.73;;
83827;SDS011;74656;48.870;12.562;2024-03-02T17:10:40;14.35;;;9.70;;
83827;SDS011;74656;48.870;12.562;2024-03-02T17:13:42;15.27;;;10.95;;
83827;SDS011;74656;48.870;12.562;2024-03-02T17:16:44;18.63;;;9.80;;
83827;SDS011;74656;48.870;12.562;2024-03-02T17:19:46;17.65;;;10.85;;
83827;SDS011;74656;48.870;12.562;2024-03-02T17:22:48;14.25;;;8.90;;
83827;SDS011;74656;48.870;12.562;2024-03-02T17:25:50;15.50;;;10.02;;
83827;SDS011;74656;48.870;12.562;2024-03-02T17:28:52;16.17;;;9.70;;
83827;SDS011;74656;48.870;12.562;2024-03-02T17:31:54;14.52;;;9.85;;
83827;SDS011;74656;48.870;12.562;2024-03-02T17:34:56;14.35;;;9.52;;
83827;SDS011;74656;48.870;12.562;2024-03-02T17:37:58;17.02;;;9.80;;
83827;SDS011;74656;48.870;12.562;2024-03-02T17:41:00;14.23;;;9.65;;
83827;SDS011;74656;48.870;12.562;2024-03-02T17:44:02;60.97;;;37.67;;